createdAt,value
2019-04-23T00:03:58.221Z,5.17
2019-04-23T00:09:12.551Z,5.10
2019-04-23T00:14:20.261Z,4.90
2019-04-23T00:19:24.766Z,5.23
2019-04-23T00:25:25.671Z,5.43
2019-04-23T00:30:13.099Z,5.30
2019-04-23T00:35:18.094Z,5.13
2019-04-23T00:40:25.848Z,5.97
2019-04-23T00:50:44.731Z,5.87
2019-04-23T00:55:52.856Z,5.50
2019-04-23T01:00:56.126Z,5.63
2019-04-23T01:06:00.697Z,5.60
2019-04-23T01:11:08.315Z,5.43
2019-04-23T01:16:14.924Z,5.70
2019-04-23T01:21:07.897Z,5.63
2019-04-23T01:26:34.406Z,5.13
2019-04-23T01:31:47.793Z,5.37
2019-04-23T01:37:00.774Z,5.13
2019-04-23T01:42:03.915Z,5.63
2019-04-23T01:47:08.060Z,5.70
2019-04-23T01:52:17.935Z,6.10
2019-04-23T01:57:22.884Z,5.67
2019-04-23T02:02:38.712Z,5.70
2019-04-23T02:07:45.658Z,5.70
2019-04-23T02:12:53.582Z,5.87
2019-04-23T02:18:02.027Z,5.53
2019-04-23T02:23:21.878Z,5.50
2019-04-23T02:28:25.764Z,5.70
2019-04-23T02:33:43.995Z,5.27
2019-04-23T02:43:50.993Z,5.33
2019-04-23T02:48:59.999Z,4.83
2019-04-23T02:59:21.842Z,5.20
2019-04-23T03:14:32.829Z,5.00
2019-04-23T03:19:47.580Z,5.03
2019-04-23T03:41:07.981Z,5.17
2019-04-23T03:46:16.115Z,4.70
2019-04-23T03:51:11.402Z,5.30
2019-04-23T04:01:29.302Z,5.27
2019-04-23T04:06:42.817Z,5.90
2019-04-23T04:11:54.900Z,5.03
2019-04-23T04:21:58.444Z,5.50
2019-04-23T04:27:06.339Z,5.10
2019-04-23T04:32:17.478Z,5.17
2019-04-23T04:37:35.151Z,5.40
2019-04-23T04:42:15.204Z,4.93
2019-04-23T04:47:36.245Z,4.87
2019-04-23T04:52:48.764Z,4.63
2019-04-23T05:03:12.688Z,5.33
2019-04-23T05:13:24.705Z,5.20
2019-04-23T05:18:38.525Z,5.30
2019-04-23T05:23:42.950Z,5.17
2019-04-23T05:28:55.562Z,5.17
2019-04-23T05:33:59.990Z,5.13
2019-04-23T05:39:07.627Z,5.40
2019-04-23T05:44:10.393Z,4.57
2019-04-23T05:54:27.709Z,4.87
2019-04-23T05:59:42.192Z,4.40
2019-04-23T06:04:37.002Z,4.63
2019-04-23T06:09:49.915Z,4.67
2019-04-23T06:14:52.538Z,4.37
2019-04-23T06:20:05.890Z,4.53
2019-04-23T06:25:12.648Z,4.23
2019-04-23T06:30:24.044Z,4.07
2019-04-23T06:35:27.094Z,4.67
2019-04-23T06:40:26.919Z,4.50
2019-04-23T06:45:32.154Z,4.47
2019-04-23T06:50:52.335Z,4.20
2019-04-23T07:01:02.084Z,4.20
2019-04-23T07:11:25.871Z,5.03
2019-04-23T07:21:33.597Z,4.90
2019-04-23T07:31:50.096Z,4.80
2019-04-23T07:37:07.392Z,5.10
2019-04-23T07:47:24.859Z,4.63
2019-04-23T07:52:41.296Z,4.87
2019-04-23T07:57:40.275Z,4.40
2019-04-23T08:02:51.525Z,4.70
2019-04-23T08:07:55.538Z,5.03
2019-04-23T08:13:14.340Z,5.00
2019-04-23T08:18:13.577Z,4.77
2019-04-23T08:23:25.194Z,4.60
2019-04-23T08:28:43.509Z,4.27
2019-04-23T08:33:42.169Z,4.60
2019-04-23T08:38:44.932Z,4.83
2019-04-23T08:44:01.095Z,4.80
2019-04-23T08:49:04.687Z,4.63
2019-04-23T08:54:14.808Z,4.40
2019-04-23T08:59:26.599Z,4.73
2019-04-23T09:04:28.831Z,4.67
2019-04-23T09:09:42.139Z,4.50
2019-04-23T09:14:41.024Z,4.10
2019-04-23T09:24:55.728Z,4.43
2019-04-23T09:30:00.108Z,4.60
2019-04-23T09:35:30.924Z,4.53
2019-04-23T09:41:04.559Z,4.63
2019-04-23T09:46:17.981Z,4.27
2019-04-23T09:51:23.575Z,5.07
2019-04-23T09:56:32.634Z,5.10
2019-04-23T10:01:41.042Z,4.40
2019-04-23T10:06:22.248Z,4.60
2019-04-23T10:11:22.230Z,3.97
2019-04-23T10:16:30.920Z,4.50
2019-04-23T10:21:35.350Z,4.03
2019-04-23T10:26:41.866Z,4.20
2019-04-23T10:31:47.199Z,3.80
2019-04-23T10:36:53.642Z,3.70
2019-04-23T10:42:01.230Z,3.63
2019-04-23T10:48:03.733Z,4.20
2019-04-23T10:53:10.262Z,4.00
2019-04-23T10:58:17.442Z,4.40
2019-04-23T11:03:38.184Z,3.90
2019-04-23T11:08:24.044Z,4.83
2019-04-23T11:13:53.551Z,4.50
2019-04-23T11:18:56.660Z,4.13
2019-04-23T11:24:04.955Z,3.80
2019-04-23T11:29:00.383Z,3.80
2019-04-23T11:34:11.762Z,4.23
2019-04-23T11:39:32.591Z,4.47
2019-04-23T11:44:28.811Z,4.47
2019-04-23T11:49:46.222Z,4.77
2019-04-23T11:59:44.369Z,4.27
2019-04-23T12:05:17.282Z,4.43
2019-04-23T12:15:39.625Z,3.97
2019-04-23T12:20:35.881Z,3.83
2019-04-23T12:25:51.548Z,3.60
2019-04-23T12:30:50.851Z,3.55
2019-04-23T12:36:34.025Z,4.30
2019-04-23T12:41:33.795Z,3.55
2019-04-23T12:46:41.591Z,3.55
2019-04-23T12:57:00.705Z,3.17
2019-04-23T13:02:08.151Z,3.30
2019-04-23T13:07:09.123Z,3.25
2019-04-23T13:12:24.006Z,3.53
2019-04-23T13:22:30.780Z,4.20
2019-04-23T13:27:42.019Z,4.17
2019-04-23T13:32:50.095Z,3.87
2019-04-23T13:37:54.804Z,3.93
2019-04-23T13:43:12.178Z,4.07
2019-04-23T13:53:18.113Z,3.57
2019-04-23T13:58:29.525Z,3.93
2019-04-23T14:03:30.743Z,3.80
2019-04-23T14:08:41.355Z,3.80
2019-04-23T14:13:44.009Z,3.73
2019-04-23T14:18:55.941Z,4.30
2019-04-23T14:29:13.114Z,4.73
2019-04-23T14:34:04.997Z,4.43
2019-04-23T14:39:10.083Z,4.13
2019-04-23T14:44:20.052Z,3.87
2019-04-23T14:55:27.878Z,3.90
2019-04-23T15:00:01.664Z,4.23
2019-04-23T15:05:09.657Z,4.07
2019-04-23T15:10:18.600Z,3.50
2019-04-23T15:15:22.514Z,3.63
2019-04-23T15:20:28.741Z,3.33
2019-04-23T15:30:52.073Z,3.60
2019-04-23T15:36:03.851Z,3.57
2019-04-23T15:41:01.841Z,2.93
2019-04-23T15:46:12.901Z,3.10
2019-04-23T15:51:22.922Z,3.30
2019-04-23T15:56:26.837Z,3.00
2019-04-23T16:01:29.356Z,3.10
2019-04-23T16:06:07.848Z,3.37
2019-04-23T16:22:01.602Z,4.07
2019-04-23T16:27:07.665Z,3.50
2019-04-23T16:32:14.824Z,3.60
2019-04-23T16:42:29.964Z,3.90
2019-04-23T16:47:28.227Z,3.53
2019-04-23T16:52:39.487Z,3.53
2019-04-23T17:03:07.229Z,3.50
2019-04-23T17:08:23.564Z,3.33
2019-04-23T17:13:16.212Z,2.80
2019-04-23T17:18:16.799Z,3.80
2019-04-23T17:33:35.552Z,3.40
2019-04-23T17:38:55.485Z,3.50
2019-04-23T17:44:10.832Z,3.50
2019-04-23T17:49:14.276Z,3.53
2019-04-23T17:59:44.512Z,3.00
2019-04-23T18:04:33.043Z,3.00
2019-04-23T18:09:37.896Z,3.30
2019-04-23T18:14:39.713Z,3.10
2019-04-23T18:20:04.753Z,3.40
2019-04-23T18:30:52.833Z,3.27
2019-04-23T18:36:05.293Z,3.37
2019-04-23T18:46:06.907Z,4.03
2019-04-23T18:51:07.777Z,3.37
2019-04-23T18:56:29.351Z,3.37
2019-04-23T19:01:33.518Z,2.97
2019-04-23T19:06:41.220Z,3.10
2019-04-23T19:27:47.120Z,3.00
2019-04-23T19:32:57.189Z,3.37
2019-04-23T19:38:08.126Z,2.80
2019-04-23T19:48:25.736Z,2.80
2019-04-23T19:53:36.286Z,2.83
2019-04-23T19:58:39.752Z,2.47
2019-04-23T20:09:10.587Z,2.70
2019-04-23T20:14:00.963Z,2.87
2019-04-23T20:24:21.568Z,2.57
2019-04-23T20:29:34.583Z,2.70
2019-04-23T20:34:40.154Z,2.60
2019-04-23T20:39:45.630Z,2.63
2019-04-23T20:55:01.982Z,2.80
2019-04-23T21:00:04.723Z,2.87
2019-04-23T21:05:24.107Z,2.57
2019-04-23T21:15:37.499Z,2.50
2019-04-23T21:20:40.127Z,2.67
2019-04-23T21:31:06.339Z,2.20
2019-04-23T21:51:58.618Z,2.70
2019-04-23T21:57:02.375Z,2.80
2019-04-23T22:02:16.862Z,2.50
2019-04-23T22:07:31.309Z,2.60
2019-04-23T22:12:57.804Z,2.60
2019-04-23T22:17:39.648Z,2.17
2019-04-23T22:22:56.568Z,2.40
2019-04-23T22:27:54.098Z,2.50
2019-04-23T22:33:54.944Z,2.43
2019-04-23T22:38:17.793Z,2.50
2019-04-23T22:48:25.462Z,2.53
2019-04-23T22:53:31.336Z,2.33
2019-04-23T22:58:42.626Z,2.30
2019-04-23T23:03:41.936Z,2.30
2019-04-23T23:09:04.305Z,2.37
2019-04-23T23:14:09.096Z,2.03
2019-04-23T23:19:07.107Z,2.37
2019-04-23T23:24:07.457Z,2.00
2019-04-23T23:29:13.567Z,2.37
2019-04-23T23:34:25.755Z,2.00
2019-04-23T23:39:49.668Z,2.40
2019-04-23T23:50:12.790Z,2.43
2019-04-23T23:55:12.712Z,2.20
